Map

Track Data

SID SEASON NUMBER BASIN SUBBASIN NAME ISO_TIME NATURE LAT LON WMO_WIND WMO_PRES WMO_AGENCY TRACK_TYPE DIST2LAND LANDFALL IFLAG USA_AGENCY USA_ATCF_ID USA_LAT USA_LON USA_RECORD USA_STATUS USA_WIND USA_PRES USA_SSHS USA_R34_NE USA_R34_SE USA_R34_SW USA_R34_NW USA_R50_NE USA_R50_SE USA_R50_SW USA_R50_NW USA_R64_NE USA_R64_SE USA_R64_SW USA_R64_NW USA_POCI USA_ROCI USA_RMW USA_EYE TOKYO_LAT TOKYO_LON TOKYO_GRADE TOKYO_WIND TOKYO_PRES TOKYO_R50_DIR TOKYO_R50_LONG TOKYO_R50_SHORT TOKYO_R30_DIR TOKYO_R30_LONG TOKYO_R30_SHORT TOKYO_LAND CMA_LAT CMA_LON CMA_CAT CMA_WIND CMA_PRES HKO_LAT HKO_LON HKO_CAT HKO_WIND HKO_PRES NEWDELHI_LAT NEWDELHI_LON NEWDELHI_GRADE NEWDELHI_WIND NEWDELHI_PRES NEWDELHI_CI NEWDELHI_DP NEWDELHI_POCI REUNION_LAT REUNION_LON REUNION_TYPE REUNION_WIND REUNION_PRES REUNION_TNUM REUNION_CI REUNION_RMW REUNION_R34_NE REUNION_R34_SE REUNION_R34_SW REUNION_R34_NW REUNION_R50_NE REUNION_R50_SE REUNION_R50_SW REUNION_R50_NW REUNION_R64_NE REUNION_R64_SE REUNION_R64_SW REUNION_R64_NW BOM_LAT BOM_LON BOM_TYPE BOM_WIND BOM_PRES BOM_TNUM BOM_CI BOM_RMW BOM_R34_NE BOM_R34_SE BOM_R34_SW BOM_R34_NW BOM_R50_NE BOM_R50_SE BOM_R50_SW BOM_R50_NW BOM_R64_NE BOM_R64_SE BOM_R64_SW BOM_R64_NW BOM_ROCI BOM_POCI BOM_EYE BOM_POS_METHOD BOM_PRES_METHOD NADI_LAT NADI_LON NADI_CAT NADI_WIND NADI_PRES WELLINGTON_LAT WELLINGTON_LON WELLINGTON_WIND WELLINGTON_PRES DS824_LAT DS824_LON DS824_STAGE DS824_WIND DS824_PRES TD9636_LAT TD9636_LON TD9636_STAGE TD9636_WIND TD9636_PRES TD9635_LAT TD9635_LON TD9635_WIND TD9635_PRES TD9635_ROCI NEUMANN_LAT NEUMANN_LON NEUMANN_CLASS NEUMANN_WIND NEUMANN_PRES MLC_LAT MLC_LON MLC_CLASS MLC_WIND MLC_PRES USA_GUST BOM_GUST BOM_GUST_PER REUNION_GUST REUNION_GUST_PER USA_SEAHGT USA_SEARAD_NE USA_SEARAD_SE USA_SEARAD_SW USA_SEARAD_NW STORM_SPEED STORM_DIR
1903254N23089 1903 44 NI BB NOT_NAMED 1903-09-11 00:00:00 TS 23.2000 89.2000 main 0 0 _________O____ -1 23.2000 89.2000 TC 30 6 276
1903254N23089 1903 44 NI BB NOT_NAMED 1903-09-11 03:00:00 TS 23.2352 88.8617 main 0 0 _________PO___ -1 23.2528 88.6926 TC 30 23.2000 89.2000 1 7 276
1903254N23089 1903 44 NI BB NOT_NAMED 1903-09-11 06:00:00 TS 23.2768 88.4026 main 0 0 _________OP___ -1 23.3000 88.2000 TC 30 23.2420 88.7065 1 8 276
1903254N23089 1903 44 NI BB NOT_NAMED 1903-09-11 09:00:00 TS 23.3184 87.9429 main 0 0 _________PP___ -1 23.3424 87.7349 TC 30 23.2865 88.2202 1 8 277
1903254N23089 1903 44 NI BB NOT_NAMED 1903-09-11 12:00:00 TS 23.3689 87.5244 main 0 0 _________OP___ -1 23.4000 87.3000 TC 30 23.3377 87.7489 1 8 279
1903254N23089 1903 44 NI BB NOT_NAMED 1903-09-11 15:00:00 TS 23.4462 87.0963 main 0 0 _________PO___ -1 23.4923 86.8925 TC 30 23.4000 87.3000 1 8 282
1903254N23089 1903 44 NI BB NOT_NAMED 1903-09-11 18:00:00 TS 23.5385 86.6891 main 0 0 _________OP___ -1 23.6000 86.5000 TC 30 23.4769 86.8783 1 8 284
1903254N23089 1903 44 NI BB NOT_NAMED 1903-09-11 21:00:00 TS 23.6308 86.2885 main 0 0 _________PP___ -1 23.6924 86.0999 TC 30 23.5692 86.4772 1 8 285
1903254N23089 1903 44 NI BB NOT_NAMED 1903-09-12 00:00:00 TS 23.7385 85.8938 main 0 0 _________OP___ -1 23.8000 85.7000 TC 30 23.6770 86.0875 1 8 288
1903254N23089 1903 44 NI BB NOT_NAMED 1903-09-12 03:00:00 TS 23.8712 85.5000 main 0 0 _________PO___ -1 23.9424 85.3000 TC 30 23.8000 85.7000 1 8 291
1903254N23089 1903 44 NI BB NOT_NAMED 1903-09-12 06:00:00 TS 24.0177 85.0959 main 0 0 _________OP___ -1 24.1000 84.9000 TC 30 23.9355 85.2919 1 8 292
1903254N23089 1903 44 NI BB NOT_NAMED 1903-09-12 09:00:00 TS 24.1674 84.6887 main 0 0 _________PP___ -1 24.2500 84.4924 TC 30 24.0848 84.8850 1 8 292
1903254N23089 1903 44 NI BB NOT_NAMED 1903-09-12 12:00:00 TS 24.3209 84.2928 main 0 0 _________OP___ -1 24.4000 84.1000 TC 30 24.2417 84.4856 1 8 294
1903254N23089 1903 44 NI BB NOT_NAMED 1903-09-12 15:00:00 TS 24.4749 83.9212 main 0 0 _________PO___ -1 24.5499 83.7424 TC 30 24.4000 84.1000 1 7 295
1903254N23089 1903 44 NI BB NOT_NAMED 1903-09-12 18:00:00 TS 24.6311 83.5516 main 0 0 _________OP___ -1 24.7000 83.4000 TC 30 24.5622 83.7033 1 8 295
1903254N23089 1903 44 NI BB NOT_NAMED 1903-09-12 21:00:00 TS 24.7938 83.1727 main 0 0 _________PP___ -1 24.8651 83.0201 TC 30 24.7226 83.3253 1 7 295
1903254N23089 1903 44 NI BB NOT_NAMED 1903-09-13 00:00:00 TS 24.9358 82.8423 main 0 0 _________OP___ -1 25.0000 82.7000 TC 30 24.8717 82.9846 1 6 295
1903254N23089 1903 44 NI BB NOT_NAMED 1903-09-13 03:00:00 TS 25.0287 82.6099 main 0 0 _________PO___ -1 25.0574 82.5198 TC 30 25.0000 82.7000 1 4 294
1903254N23089 1903 44 NI BB NOT_NAMED 1903-09-13 06:00:00 TS 25.0980 82.4460 main 0 0 _________OP___ -1 25.1000 82.4000 TC 30 25.0961 82.4920 1 3 299
1903254N23089 1903 44 NI BB NOT_NAMED 1903-09-13 09:00:00 TS 25.1859 82.2947 main 0 0 _________PP___ -1 25.2000 82.2500 TC 30 25.1719 82.3394 1 3 303
1903254N23089 1903 44 NI BB NOT_NAMED 1903-09-13 12:00:00 TS 25.2684 82.1586 main 0 0 _________OP___ -1 25.3000 82.1000 TC 30 25.2368 82.2171 1 3 300
1903254N23089 1903 44 NI BB NOT_NAMED 1903-09-13 15:00:00 TS 25.3250 82.0250 main 0 0 _________PO___ -1 25.3500 81.9499 TC 30 25.3000 82.1000 1 3 294
1903254N23089 1903 44 NI BB NOT_NAMED 1903-09-13 18:00:00 TS 25.3834 81.8749 main 0 0 _________OP___ -1 25.4000 81.8000 TC 30 25.3668 81.9499 1 3 297
1903254N23089 1903 44 NI BB NOT_NAMED 1903-09-13 21:00:00 TS 25.4637 81.7249 main 0 0 _________PP___ -1 25.4925 81.6500 TC 30 25.4349 81.7998 1 3 302
1903254N23089 1903 44 NI BB NOT_NAMED 1903-09-14 00:00:00 TS 25.5553 81.5749 main 0 0 _________OP___ -1 25.6000 81.5000 TC 30 25.5106 81.6498 1 3 304
1903254N23089 1903 44 NI BB NOT_NAMED 1903-09-14 03:00:00 TS 25.6462 81.4250 main 0 0 _________PO___ -1 25.6925 81.3499 TC 30 25.6000 81.5000 1 3 307
1903254N23089 1903 44 NI BB NOT_NAMED 1903-09-14 06:00:00 TS 25.7573 81.2770 main 0 0 _________OP___ -1 25.8000 81.2000 TC 30 25.7146 81.3541 1 4 313
1903254N23089 1903 44 NI BB NOT_NAMED 1903-09-14 09:00:00 TS 25.8962 81.1288 main 0 0 _________PP___ -1 25.9500 81.0500 TC 30 25.8424 81.2075 1 4 316
1903254N23089 1903 44 NI BB NOT_NAMED 1903-09-14 12:00:00 TS 26.0370 80.9786 main 0 0 _________OP___ -1 26.1000 80.9000 TC 30 25.9740 81.0572 1 4 314
1903254N23089 1903 44 NI BB NOT_NAMED 1903-09-14 15:00:00 TS 26.1537 80.8287 main 0 0 _________PO___ -1 26.2075 80.7574 TC 30 26.1000 80.9000 1 3 308
1903254N23089 1903 44 NI BB NOT_NAMED 1903-09-14 18:00:00 TS 26.2504 80.6765 main 0 0 _________OP___ -1 26.3000 80.6000 TC 30 26.2132 80.7338 1 4 304
1903254N23089 1903 44 NI BB NOT_NAMED 1903-09-14 21:00:00 TS 26.3482 80.5001 main 0 0 _________PP___ -1 26.3976 80.4101 TC 30 26.3152 80.5602 1 4 301
1903254N23089 1903 44 NI BB NOT_NAMED 1903-09-15 00:00:00 TS 26.4397 80.3209 main 0 0 _________OP___ -1 26.5000 80.2000 TC 30 26.4096 80.3814 1 3 299
1903254N23089 1903 44 NI BB NOT_NAMED 1903-09-15 03:00:00 NR 26.5000 80.2000 main 0 __________O___ -1 TC 26.5000 80.2000 1 2 301

About IBTrACS Database

This database is a web-friendly format of International Best Track Archive for Climate Stewardship (IBTrACS), a global best track data archive curated by NOAA dating back to 1842.

Updated: 2021-10-08